Terminal Aerodrome Forecast
Issued by NWS

Home | Current Version | Previous Version | Text Only | Print | Product List | Glossary On
Versions: 1 2 3 4 5 6 7 8 9 10 11 12 13 14 15 16 17 18 19
000
FTUS44 KHGX 221720
TAFLBX
TAF
KLBX 221720Z 2218/2318 08010KT P6SM SCT035 SCT250
     FM230300 VRB04KT P6SM FEW035 SCT250
     FM230900 00000KT P6SM MIFG SCT120
     FM231500 04007KT P6SM SCT120=

USA.gov is the U.S. government's official web portal to all federal, state and local government web resources and services.